createdAt,value
2018-06-18T00:01:08.230Z,20.49
2018-06-18T00:03:36.056Z,20.45
2018-06-18T00:06:03.848Z,20.46
2018-06-18T00:08:31.686Z,20.57
2018-06-18T00:10:59.497Z,20.65
2018-06-18T00:13:27.298Z,20.71
2018-06-18T00:15:55.127Z,20.69
2018-06-18T00:18:22.954Z,20.76
2018-06-18T00:20:50.770Z,20.81
2018-06-18T00:23:18.570Z,20.90
2018-06-18T00:25:46.377Z,20.94
2018-06-18T00:28:14.178Z,20.98
2018-06-18T00:30:41.977Z,21.02
2018-06-18T00:33:09.788Z,20.97
2018-06-18T00:35:37.593Z,20.96
2018-06-18T00:38:05.407Z,20.82
2018-06-18T00:40:33.242Z,20.79
2018-06-18T00:43:01.061Z,20.85
2018-06-18T00:45:35.562Z,20.92
2018-06-18T00:48:03.436Z,20.98
2018-06-18T00:50:31.252Z,21.02
2018-06-18T00:52:59.075Z,21.03
2018-06-18T00:55:38.149Z,20.92
2018-06-18T00:58:05.919Z,20.59
2018-06-18T01:00:33.807Z,20.45
2018-06-18T01:03:01.649Z,20.39
2018-06-18T01:05:29.462Z,20.28
2018-06-18T01:07:57.237Z,20.19
2018-06-18T01:10:25.051Z,20.11
2018-06-18T01:12:52.919Z,20.05
2018-06-18T01:15:20.759Z,20.11
2018-06-18T01:17:48.586Z,20.00
2018-06-18T01:20:16.404Z,19.98
2018-06-18T01:22:48.055Z,20.14
2018-06-18T01:25:15.869Z,20.22
2018-06-18T01:27:43.683Z,20.17
2018-06-18T01:30:11.519Z,20.21
2018-06-18T01:32:39.345Z,20.16
2018-06-18T01:35:07.974Z,20.10
2018-06-18T01:37:35.785Z,20.16
2018-06-18T01:40:03.637Z,20.17
2018-06-18T01:42:31.445Z,20.16
2018-06-18T01:44:59.259Z,20.09
2018-06-18T01:47:27.092Z,20.10
2018-06-18T01:49:54.907Z,20.13
2018-06-18T01:52:22.718Z,20.15
2018-06-18T01:54:50.517Z,20.13
2018-06-18T01:57:18.722Z,20.18
2018-06-18T01:59:46.549Z,20.26
2018-06-18T02:02:14.380Z,20.35
2018-06-18T02:04:42.182Z,20.42
2018-06-18T02:07:09.986Z,20.40
2018-06-18T02:09:37.846Z,20.23
2018-06-18T02:12:05.697Z,20.14
2018-06-18T02:14:33.549Z,20.05
2018-06-18T02:17:01.431Z,19.97
2018-06-18T02:19:29.291Z,20.00
2018-06-18T02:21:57.151Z,20.08
2018-06-18T02:24:24.977Z,20.19
2018-06-18T02:26:58.384Z,20.28
2018-06-18T02:29:31.806Z,20.37
2018-06-18T02:32:05.210Z,20.44
2018-06-18T02:36:46.180Z,20.44
2018-06-18T02:39:15.581Z,20.20
2018-06-18T02:41:44.544Z,20.18
2018-06-18T02:44:12.836Z,20.26
2018-06-18T02:46:40.712Z,20.32
2018-06-18T02:49:08.763Z,20.36
2018-06-18T02:51:36.676Z,20.46
2018-06-18T02:54:04.961Z,20.56
2018-06-18T02:56:40.449Z,20.77
2018-06-18T02:59:08.288Z,21.03
2018-06-18T03:01:36.436Z,21.00
2018-06-18T03:04:04.468Z,20.84
2018-06-18T03:06:32.292Z,20.67
2018-06-18T03:09:00.188Z,20.48
2018-06-18T03:11:28.057Z,20.34
2018-06-18T03:13:55.912Z,20.25
2018-06-18T03:16:23.805Z,20.48
2018-06-18T03:18:57.065Z,20.45
2018-06-18T03:21:30.361Z,20.53
2018-06-18T03:24:03.719Z,20.65
2018-06-18T03:26:37.158Z,20.73
2018-06-18T03:29:10.619Z,20.78
2018-06-18T03:31:38.456Z,20.84
2018-06-18T03:34:06.275Z,21.00
2018-06-18T03:36:34.089Z,21.25
2018-06-18T03:39:01.955Z,21.47
2018-06-18T03:41:29.807Z,21.51
2018-06-18T03:44:03.087Z,21.67
2018-06-18T03:46:30.933Z,21.67
2018-06-18T03:48:58.759Z,21.73
2018-06-18T03:51:26.594Z,21.41
2018-06-18T03:53:54.442Z,21.39
2018-06-18T03:56:22.331Z,21.67
2018-06-18T03:58:50.156Z,21.66
2018-06-18T04:01:35.288Z,21.65
2018-06-18T04:04:09.920Z,22.02
2018-06-18T04:06:43.367Z,22.45
2018-06-18T04:09:22.783Z,22.72
2018-06-18T04:11:56.226Z,23.48
2018-06-18T04:14:24.088Z,24.72
2018-06-18T04:16:51.938Z,26.63
2018-06-18T04:19:19.836Z,29.44
2018-06-18T04:21:47.673Z,30.50
2018-06-18T04:24:15.501Z,30.90
2018-06-18T04:26:43.303Z,29.35
2018-06-18T04:29:11.143Z,28.45
2018-06-18T04:31:38.977Z,28.12
2018-06-18T04:34:22.089Z,29.40
2018-06-18T04:36:49.955Z,30.19
2018-06-18T04:39:17.792Z,30.58
2018-06-18T04:41:51.150Z,32.06
2018-06-18T04:44:24.594Z,29.94
2018-06-18T04:46:58.008Z,28.96
2018-06-18T04:49:31.237Z,27.08
2018-06-18T04:51:59.091Z,27.46
2018-06-18T04:54:26.894Z,28.02
2018-06-18T04:56:54.709Z,28.06
2018-06-18T04:59:22.494Z,27.74
2018-06-18T05:01:50.299Z,28.65
2018-06-18T05:04:18.130Z,29.67
2018-06-18T05:06:45.975Z,31.31
2018-06-18T05:09:20.318Z,32.67
2018-06-18T05:11:48.162Z,32.27
2018-06-18T05:14:16.024Z,30.36
2018-06-18T05:16:43.855Z,29.58
2018-06-18T05:19:11.661Z,29.50
2018-06-18T05:21:39.523Z,28.98
2018-06-18T05:24:07.344Z,28.78
2018-06-18T05:26:37.866Z,28.46
2018-06-18T05:29:05.675Z,28.71
2018-06-18T05:31:33.511Z,28.90
2018-06-18T05:34:01.344Z,28.37
2018-06-18T05:36:29.159Z,29.12
2018-06-18T05:38:57.007Z,29.55
2018-06-18T05:41:24.896Z,28.89
2018-06-18T05:43:52.837Z,29.20
2018-06-18T05:46:20.652Z,28.89
2018-06-18T05:48:48.473Z,28.32
2018-06-18T05:51:18.311Z,27.89
2018-06-18T05:53:46.222Z,27.46
2018-06-18T05:56:14.042Z,27.14
2018-06-18T05:58:41.862Z,26.11
2018-06-18T06:01:09.680Z,26.96
2018-06-18T06:03:37.544Z,26.22
2018-06-18T06:06:05.391Z,26.05
2018-06-18T06:08:33.249Z,25.29
2018-06-18T06:11:01.075Z,25.02
2018-06-18T06:13:28.884Z,24.47
2018-06-18T06:15:56.731Z,24.20
2018-06-18T06:18:24.626Z,24.43
2018-06-18T06:20:56.422Z,24.42
2018-06-18T06:23:24.274Z,24.06
2018-06-18T06:25:52.157Z,23.90
2018-06-18T06:28:20.003Z,23.96
2018-06-18T06:30:47.831Z,23.65
2018-06-18T06:33:15.653Z,23.35
2018-06-18T06:35:44.379Z,23.29
2018-06-18T06:38:12.215Z,23.50
2018-06-18T06:40:40.202Z,23.82
2018-06-18T06:43:08.544Z,24.20
2018-06-18T06:45:36.371Z,25.03
2018-06-18T06:48:04.242Z,25.30
2018-06-18T06:50:32.074Z,25.35
2018-06-18T06:52:59.911Z,26.34
2018-06-18T06:55:28.119Z,28.05
2018-06-18T06:57:55.961Z,28.15
2018-06-18T07:00:23.826Z,27.81
2018-06-18T07:02:51.634Z,26.97
2018-06-18T07:05:19.519Z,27.71
2018-06-18T07:07:47.364Z,28.89
2018-06-18T07:10:15.187Z,30.43
2018-06-18T07:12:43.014Z,30.23
2018-06-18T07:15:10.848Z,30.04
2018-06-18T07:17:39.673Z,30.38
2018-06-18T07:20:07.575Z,29.20
2018-06-18T07:22:35.446Z,29.90
2018-06-18T07:25:03.289Z,29.89
2018-06-18T07:27:31.094Z,31.92
2018-06-18T07:29:58.932Z,31.14
2018-06-18T07:32:26.774Z,31.33
2018-06-18T07:34:54.811Z,32.65
2018-06-18T07:37:22.613Z,33.36
2018-06-18T07:39:50.399Z,32.62
2018-06-18T07:42:18.210Z,32.78
2018-06-18T07:44:46.042Z,32.49
2018-06-18T07:47:13.854Z,32.20
2018-06-18T07:49:41.916Z,30.99
2018-06-18T07:52:09.760Z,33.38
2018-06-18T07:54:37.599Z,31.71
2018-06-18T07:57:05.799Z,28.53
2018-06-18T07:59:33.940Z,29.17
2018-06-18T08:02:01.914Z,28.13
2018-06-18T08:04:29.972Z,28.43
2018-06-18T08:06:57.829Z,28.85
2018-06-18T08:09:25.658Z,29.30
2018-06-18T08:11:53.491Z,30.08
2018-06-18T08:14:21.291Z,28.85
2018-06-18T08:16:49.115Z,27.17
2018-06-18T08:19:16.932Z,26.95
2018-06-18T08:21:44.766Z,27.63
2018-06-18T08:24:12.611Z,28.16
2018-06-18T08:26:40.472Z,28.30
2018-06-18T08:29:08.274Z,29.42
2018-06-18T08:31:36.079Z,29.67
2018-06-18T08:34:03.884Z,30.13
2018-06-18T08:36:31.719Z,29.76
2018-06-18T08:38:59.580Z,30.62
2018-06-18T08:41:27.406Z,30.83
2018-06-18T08:43:55.219Z,30.04
2018-06-18T08:46:23.084Z,29.79
2018-06-18T08:48:56.494Z,28.85
2018-06-18T08:51:29.793Z,27.65
2018-06-18T08:54:03.192Z,28.56
2018-06-18T08:56:36.483Z,28.07
2018-06-18T08:59:09.905Z,28.90
2018-06-18T09:01:41.642Z,29.62
2018-06-18T09:04:15.162Z,30.71
2018-06-18T09:06:43.004Z,30.58
2018-06-18T09:09:10.831Z,29.09
2018-06-18T09:11:38.646Z,28.70
2018-06-18T09:14:06.450Z,29.54
2018-06-18T09:16:34.325Z,29.40
2018-06-18T09:19:02.202Z,30.10
2018-06-18T09:21:30.026Z,30.93
2018-06-18T09:23:57.894Z,31.10
2018-06-18T09:28:20.357Z,31.52
2018-06-18T09:30:48.152Z,30.36
2018-06-18T09:33:16.047Z,30.62
2018-06-18T09:35:43.981Z,30.75
2018-06-18T09:38:11.866Z,31.10
2018-06-18T09:40:39.718Z,30.90
2018-06-18T09:43:07.548Z,30.35
2018-06-18T09:45:35.426Z,31.48
2018-06-18T09:48:03.237Z,28.31
2018-06-18T09:50:36.536Z,29.28
2018-06-18T09:53:09.950Z,30.34
2018-06-18T09:55:43.341Z,30.66
2018-06-18T09:58:16.761Z,28.49
2018-06-18T10:01:02.342Z,28.71
2018-06-18T10:03:30.602Z,30.24
2018-06-18T10:05:58.487Z,30.87
2018-06-18T10:08:26.430Z,31.28
2018-06-18T10:10:54.270Z,31.06
2018-06-18T10:13:22.058Z,29.91
2018-06-18T10:15:49.926Z,32.49
2018-06-18T10:18:17.730Z,32.99
2018-06-18T10:20:45.603Z,31.43
2018-06-18T10:23:13.424Z,30.00
2018-06-18T10:25:41.225Z,31.13
2018-06-18T10:28:09.050Z,32.79
2018-06-18T10:30:36.847Z,32.47
2018-06-18T10:33:10.273Z,30.92
2018-06-18T10:35:43.707Z,29.09
2018-06-18T10:38:17.131Z,27.94
2018-06-18T10:40:50.511Z,27.96
2018-06-18T10:43:21.351Z,25.47
2018-06-18T10:45:49.842Z,24.74
2018-06-18T10:48:17.663Z,24.13
2018-06-18T10:50:45.528Z,23.22
2018-06-18T10:53:13.564Z,21.96
2018-06-18T10:55:41.712Z,20.84
2018-06-18T10:58:09.554Z,20.61
2018-06-18T11:00:37.723Z,20.90
2018-06-18T11:03:05.882Z,21.33
2018-06-18T11:05:39.184Z,21.81
2018-06-18T11:08:07.687Z,21.88
2018-06-18T11:10:35.660Z,22.49
2018-06-18T11:13:03.475Z,22.86
2018-06-18T11:15:31.355Z,22.77
2018-06-18T11:18:04.668Z,22.78
2018-06-18T11:20:37.939Z,22.88
2018-06-18T11:23:11.216Z,23.39
2018-06-18T11:25:44.522Z,23.63
2018-06-18T11:28:12.436Z,23.66
2018-06-18T11:30:40.255Z,23.83
2018-06-18T11:33:08.094Z,24.36
2018-06-18T11:35:35.926Z,24.42
2018-06-18T11:38:03.795Z,24.83
2018-06-18T11:40:31.623Z,24.91
2018-06-18T11:42:59.469Z,24.76
2018-06-18T11:45:27.302Z,24.88
2018-06-18T11:48:05.826Z,25.50
2018-06-18T11:50:33.980Z,26.30
2018-06-18T11:53:01.803Z,26.53
2018-06-18T11:55:29.654Z,26.66
2018-06-18T11:57:57.659Z,26.85
2018-06-18T12:00:31.114Z,26.40
2018-06-18T12:03:04.383Z,26.50
2018-06-18T12:05:37.599Z,26.18
2018-06-18T12:08:11.099Z,26.55
2018-06-18T12:10:38.982Z,26.83
2018-06-18T12:13:07.094Z,27.05
2018-06-18T12:15:34.954Z,27.43
2018-06-18T12:18:02.771Z,27.23
2018-06-18T12:20:30.810Z,26.59
2018-06-18T12:22:58.670Z,26.69
2018-06-18T12:25:26.511Z,27.29
2018-06-18T12:27:54.315Z,27.56
2018-06-18T12:30:22.139Z,27.81
2018-06-18T12:32:49.984Z,27.43
2018-06-18T12:35:17.919Z,27.11
2018-06-18T12:37:45.967Z,26.83
2018-06-18T12:40:13.790Z,26.28
2018-06-18T12:42:41.671Z,26.21
2018-06-18T12:45:16.372Z,25.71
2018-06-18T12:47:49.804Z,25.97
2018-06-18T12:50:23.159Z,25.88
2018-06-18T12:52:56.571Z,25.32
2018-06-18T12:57:33.584Z,24.79
2018-06-18T13:00:01.430Z,25.56
2018-06-18T13:02:42.731Z,25.72
2018-06-18T13:05:10.530Z,25.24
2018-06-18T13:07:38.395Z,25.65
2018-06-18T13:10:06.235Z,25.75
2018-06-18T13:12:34.062Z,25.88
2018-06-18T13:15:01.894Z,25.67
2018-06-18T13:17:29.749Z,25.80
2018-06-18T13:19:57.579Z,25.67
2018-06-18T13:22:25.552Z,25.63
2018-06-18T13:24:53.868Z,25.64
2018-06-18T13:27:26.199Z,25.93
2018-06-18T13:29:54.015Z,26.18
2018-06-18T13:32:21.859Z,26.18
2018-06-18T13:34:49.666Z,25.64
2018-06-18T13:37:22.955Z,26.19
2018-06-18T13:39:56.398Z,26.24
2018-06-18T13:42:29.681Z,26.02
2018-06-18T13:45:02.931Z,25.51
2018-06-18T13:47:36.242Z,25.73
2018-06-18T13:50:04.136Z,26.27
2018-06-18T13:52:32.074Z,26.25
2018-06-18T13:55:02.907Z,26.22
2018-06-18T13:57:30.753Z,25.94
2018-06-18T13:59:58.586Z,25.57
2018-06-18T14:02:26.480Z,25.58
2018-06-18T14:04:54.282Z,25.33
2018-06-18T14:07:22.100Z,25.03
2018-06-18T14:09:49.953Z,25.11
2018-06-18T14:12:17.784Z,25.31
2018-06-18T14:14:45.615Z,25.31
2018-06-18T14:17:13.464Z,25.09
2018-06-18T14:19:46.971Z,25.44
2018-06-18T14:22:14.821Z,25.39
2018-06-18T14:24:42.674Z,25.04
2018-06-18T14:27:10.482Z,25.08
2018-06-18T14:29:43.798Z,24.70
2018-06-18T14:32:17.025Z,24.94
2018-06-18T14:34:50.405Z,25.11
2018-06-18T14:37:23.642Z,25.21
2018-06-18T14:39:57.171Z,25.91
2018-06-18T14:42:25.176Z,25.80
2018-06-18T14:44:52.875Z,25.60
2018-06-18T14:47:20.708Z,25.84
2018-06-18T14:49:48.549Z,26.00
2018-06-18T14:52:16.362Z,25.76
2018-06-18T14:54:44.191Z,26.09
2018-06-18T14:57:12.111Z,26.38
2018-06-18T14:59:48.567Z,26.00
2018-06-18T15:02:16.378Z,26.03
2018-06-18T15:04:44.191Z,26.14
2018-06-18T15:07:12.008Z,26.35
2018-06-18T15:09:39.875Z,26.51
2018-06-18T15:12:08.247Z,26.26
2018-06-18T15:14:36.082Z,25.83
2018-06-18T15:17:04.797Z,25.83
2018-06-18T15:19:32.644Z,25.77
2018-06-18T15:22:00.522Z,25.69
2018-06-18T15:24:38.830Z,25.71
2018-06-18T15:27:06.715Z,26.09
2018-06-18T15:29:34.528Z,25.85
2018-06-18T15:32:02.373Z,26.02
2018-06-18T15:34:30.200Z,26.45
2018-06-18T15:36:58.021Z,26.26
2018-06-18T15:39:25.993Z,26.06
2018-06-18T15:41:54.057Z,26.27
2018-06-18T15:44:21.960Z,26.08
2018-06-18T15:46:49.709Z,25.61
2018-06-18T15:49:17.510Z,25.50
2018-06-18T15:51:45.316Z,25.39
2018-06-18T15:54:13.141Z,25.15
2018-06-18T15:56:41.043Z,25.60
2018-06-18T15:59:08.843Z,25.69
2018-06-18T16:01:36.708Z,25.42
2018-06-18T16:04:04.887Z,25.08
2018-06-18T16:06:32.703Z,25.30
2018-06-18T16:09:00.519Z,25.56
2018-06-18T16:11:28.310Z,25.38
2018-06-18T16:13:56.106Z,25.05
2018-06-18T16:16:23.928Z,25.25
2018-06-18T16:18:51.782Z,25.53
2018-06-18T16:21:20.022Z,25.71
2018-06-18T16:23:47.822Z,25.84
2018-06-18T16:26:15.691Z,25.92
2018-06-18T16:28:43.477Z,26.05
2018-06-18T16:31:11.283Z,25.84
2018-06-18T16:33:39.099Z,25.49
2018-06-18T16:36:06.898Z,24.26
2018-06-18T16:38:34.789Z,23.11
2018-06-18T16:41:02.615Z,22.69
2018-06-18T16:43:31.038Z,22.62
2018-06-18T16:45:58.898Z,22.10
2018-06-18T16:48:26.751Z,22.03
2018-06-18T16:50:54.631Z,21.97
2018-06-18T16:53:22.470Z,21.31
2018-06-18T16:55:50.295Z,19.77
2018-06-18T16:58:18.121Z,19.13
2018-06-18T17:00:45.929Z,18.69
2018-06-18T17:03:13.800Z,18.48
2018-06-18T17:05:41.620Z,18.20
2018-06-18T17:08:09.499Z,18.25
2018-06-18T17:10:37.408Z,18.16
2018-06-18T17:13:05.481Z,17.97
2018-06-18T17:15:33.309Z,18.09
2018-06-18T17:18:01.182Z,18.17
2018-06-18T17:20:29.077Z,18.17
2018-06-18T17:22:56.899Z,18.10
2018-06-18T17:25:24.727Z,18.09
2018-06-18T17:27:52.639Z,18.10
2018-06-18T17:30:21.007Z,18.27
2018-06-18T17:32:48.843Z,18.59
2018-06-18T17:35:16.730Z,18.57
2018-06-18T17:37:44.558Z,18.64
2018-06-18T17:40:12.388Z,18.64
2018-06-18T17:42:40.240Z,18.63
2018-06-18T17:45:08.129Z,18.69
2018-06-18T17:47:35.989Z,18.62
2018-06-18T17:50:03.832Z,18.64
2018-06-18T17:52:31.783Z,18.75
2018-06-18T17:54:59.719Z,18.56
2018-06-18T17:57:27.634Z,18.51
2018-06-18T17:59:55.609Z,18.42
2018-06-18T18:02:23.481Z,18.37
2018-06-18T18:04:55.027Z,18.18
2018-06-18T18:07:22.892Z,18.23
2018-06-18T18:09:50.739Z,18.24
2018-06-18T18:12:18.596Z,18.34
2018-06-18T18:14:46.455Z,18.34
2018-06-18T18:17:14.411Z,18.28
2018-06-18T18:19:42.241Z,18.22
2018-06-18T18:22:10.095Z,18.21
2018-06-18T18:24:37.904Z,18.14
2018-06-18T18:27:06.154Z,18.06
2018-06-18T18:29:34.331Z,18.07
2018-06-18T18:32:02.236Z,18.02
2018-06-18T18:34:30.091Z,18.02
2018-06-18T18:36:58.000Z,18.09
2018-06-18T18:39:26.099Z,18.15
2018-06-18T18:41:54.938Z,18.09
2018-06-18T18:44:24.114Z,18.09
2018-06-18T18:46:52.492Z,18.05
2018-06-18T18:49:21.116Z,18.08
2018-06-18T18:51:49.494Z,18.05
2018-06-18T18:55:26.678Z,17.98
2018-06-18T18:58:05.617Z,18.10
2018-06-18T19:00:33.496Z,18.11
2018-06-18T19:03:01.391Z,18.13
2018-06-18T19:05:29.463Z,18.09
2018-06-18T19:07:57.874Z,18.04
2018-06-18T19:10:28.603Z,17.96
2018-06-18T19:12:58.003Z,17.91
2018-06-18T19:15:26.030Z,17.93
2018-06-18T19:17:54.959Z,17.93
2018-06-18T19:20:30.225Z,17.95
2018-06-18T19:22:59.672Z,17.90
2018-06-18T19:25:28.586Z,17.92
2018-06-18T19:27:57.568Z,17.96
2018-06-18T19:30:27.119Z,17.99
2018-06-18T19:33:01.525Z,18.12
2018-06-18T19:35:30.269Z,18.18
2018-06-18T19:37:59.191Z,18.22
2018-06-18T19:40:29.286Z,18.21
2018-06-18T19:42:59.159Z,18.22
2018-06-18T19:45:29.885Z,18.31
2018-06-18T19:48:00.766Z,18.31
2018-06-18T19:50:28.608Z,18.28
2018-06-18T19:52:56.994Z,18.24
2018-06-18T19:55:27.472Z,18.33
2018-06-18T19:57:55.346Z,18.23
2018-06-18T20:00:26.092Z,18.29
2018-06-18T20:02:53.953Z,18.28
2018-06-18T20:05:21.796Z,18.29
2018-06-18T20:07:54.223Z,18.34
2018-06-18T20:10:23.102Z,18.38
2018-06-18T20:12:50.923Z,18.38
2018-06-18T20:15:18.769Z,18.33
2018-06-18T20:17:46.596Z,18.40
2018-06-18T20:20:15.177Z,18.32
2018-06-18T20:22:43.351Z,18.22
2018-06-18T20:25:11.169Z,18.15
2018-06-18T20:27:38.992Z,18.20
2018-06-18T20:30:08.379Z,18.23
2018-06-18T20:32:36.168Z,18.25
2018-06-18T20:35:06.614Z,18.31
2018-06-18T20:37:34.419Z,18.22
2018-06-18T20:40:02.231Z,18.13
2018-06-18T20:42:30.026Z,18.09
2018-06-18T20:44:57.874Z,18.16
2018-06-18T20:47:25.697Z,18.14
2018-06-18T20:49:53.627Z,18.15
2018-06-18T20:52:21.454Z,18.14
2018-06-18T20:54:49.258Z,18.09
2018-06-18T20:57:17.059Z,18.15
2018-06-18T20:59:44.907Z,18.10
2018-06-18T21:02:12.730Z,18.12
2018-06-18T21:04:40.615Z,18.10
2018-06-18T21:07:08.445Z,18.10
2018-06-18T21:09:36.351Z,18.12
2018-06-18T21:12:04.264Z,18.13
2018-06-18T21:14:32.130Z,18.15
2018-06-18T21:17:00.032Z,18.08
2018-06-18T21:19:27.914Z,18.05
2018-06-18T21:21:55.811Z,17.95
2018-06-18T21:24:23.669Z,17.86
2018-06-18T21:26:51.493Z,17.95
2018-06-18T21:29:19.327Z,17.94
2018-06-18T21:31:47.158Z,17.92
2018-06-18T21:34:14.981Z,17.90
2018-06-18T21:36:42.799Z,17.91
2018-06-18T21:39:11.309Z,17.85
2018-06-18T21:41:39.226Z,17.85
2018-06-18T21:44:11.890Z,17.82
2018-06-18T21:46:39.720Z,17.82
2018-06-18T21:49:07.560Z,17.85
2018-06-18T21:51:35.402Z,17.71
2018-06-18T21:54:03.276Z,17.71
2018-06-18T21:56:31.113Z,17.68
2018-06-18T21:58:58.999Z,17.64
2018-06-18T22:01:35.466Z,17.59
2018-06-18T22:04:03.326Z,17.49
2018-06-18T22:06:31.137Z,17.49
2018-06-18T22:08:58.983Z,17.47
2018-06-18T22:11:26.949Z,17.52
2018-06-18T22:13:54.785Z,17.55
2018-06-18T22:16:22.642Z,17.67
2018-06-18T22:18:50.454Z,17.51
2018-06-18T22:21:18.297Z,17.35
2018-06-18T22:23:46.168Z,17.31
2018-06-18T22:26:13.985Z,17.30
2018-06-18T22:28:42.489Z,17.35
2018-06-18T22:31:10.350Z,17.42
2018-06-18T22:33:38.203Z,17.45
2018-06-18T22:36:06.036Z,17.48
2018-06-18T22:38:33.919Z,17.57
2018-06-18T22:41:01.738Z,17.62
2018-06-18T22:43:29.611Z,17.55
2018-06-18T22:45:57.461Z,17.34
2018-06-18T22:48:25.283Z,17.27
2018-06-18T22:50:53.145Z,17.28
2018-06-18T22:53:20.965Z,17.27
2018-06-18T22:55:48.855Z,17.28
2018-06-18T22:58:16.703Z,17.34
2018-06-18T23:00:44.558Z,17.39
2018-06-18T23:03:12.429Z,17.36
2018-06-18T23:05:40.278Z,17.24
2018-06-18T23:08:08.142Z,17.14
2018-06-18T23:10:35.994Z,17.12
2018-06-18T23:13:03.829Z,16.95
2018-06-18T23:15:31.710Z,16.87
2018-06-18T23:17:59.554Z,16.83
2018-06-18T23:20:27.411Z,16.78
2018-06-18T23:22:55.250Z,16.75
2018-06-18T23:25:23.121Z,16.83
2018-06-18T23:27:50.937Z,16.93
2018-06-18T23:30:18.746Z,17.09
2018-06-18T23:32:46.578Z,17.20
2018-06-18T23:35:14.413Z,17.28
2018-06-18T23:37:42.231Z,17.28
2018-06-18T23:40:10.063Z,17.36
2018-06-18T23:42:37.891Z,17.37
2018-06-18T23:45:06.038Z,17.32
2018-06-18T23:47:33.906Z,17.30
2018-06-18T23:50:01.722Z,17.33
2018-06-18T23:52:29.602Z,17.33
2018-06-18T23:54:57.419Z,17.34
2018-06-18T23:57:25.274Z,17.35
2018-06-18T23:59:53.138Z,17.36
